createdAt,value
2022-10-31T00:01:28.740Z,8.60
2022-10-31T00:03:56.117Z,8.50
2022-10-31T00:06:24.222Z,8.50
2022-10-31T00:08:56.645Z,8.40
2022-10-31T00:11:24.362Z,8.40
2022-10-31T00:13:51.735Z,8.40
2022-10-31T00:16:21.506Z,8.40
2022-10-31T00:18:57.666Z,8.40
2022-10-31T00:21:26.266Z,8.30
2022-10-31T00:23:53.645Z,8.40
2022-10-31T00:26:21.116Z,8.30
2022-10-31T00:28:48.553Z,8.30
2022-10-31T00:31:15.742Z,8.30
2022-10-31T00:33:43.252Z,8.30
2022-10-31T00:36:14.793Z,8.30
2022-10-31T00:38:42.635Z,8.30
2022-10-31T00:41:10.889Z,8.30
2022-10-31T00:43:42.172Z,8.20
2022-10-31T00:46:10.587Z,8.30
2022-10-31T00:48:37.801Z,8.30
2022-10-31T00:51:05.174Z,8.30
2022-10-31T00:53:33.210Z,8.20
2022-10-31T00:56:00.438Z,8.20
2022-10-31T00:58:27.946Z,8.20
2022-10-31T01:00:57.958Z,8.20
2022-10-31T01:03:27.520Z,8.30
2022-10-31T01:06:12.203Z,8.30
2022-10-31T01:08:39.881Z,8.30
2022-10-31T01:11:09.131Z,8.30
2022-10-31T01:13:36.380Z,8.30
2022-10-31T01:16:05.441Z,8.40
2022-10-31T01:18:33.450Z,8.40
2022-10-31T01:21:08.389Z,8.40
2022-10-31T01:23:36.126Z,8.40
2022-10-31T01:26:08.411Z,8.40
2022-10-31T01:28:37.469Z,8.40
2022-10-31T01:31:07.973Z,8.40
2022-10-31T01:33:36.359Z,8.40
2022-10-31T01:36:13.392Z,8.50
2022-10-31T01:38:40.752Z,8.50
2022-10-31T01:41:10.000Z,8.50
2022-10-31T01:43:55.034Z,8.50
2022-10-31T01:46:35.128Z,8.40
2022-10-31T01:49:09.364Z,8.50
2022-10-31T01:51:41.857Z,8.40
2022-10-31T01:54:13.770Z,8.50
2022-10-31T01:56:43.566Z,8.50
2022-10-31T01:59:16.983Z,8.40
2022-10-31T02:01:44.254Z,8.40
2022-10-31T02:04:11.583Z,8.40
2022-10-31T02:06:45.204Z,8.40
2022-10-31T02:09:15.073Z,8.40
2022-10-31T02:11:43.203Z,8.30
2022-10-31T02:14:12.331Z,8.30
2022-10-31T02:16:39.586Z,8.30
2022-10-31T02:19:12.635Z,8.20
2022-10-31T02:22:18.099Z,8.20
2022-10-31T02:25:04.399Z,8.20
2022-10-31T02:27:43.859Z,8.20
2022-10-31T02:30:24.651Z,8.30
2022-10-31T02:33:08.097Z,8.30
2022-10-31T02:35:41.025Z,8.30
2022-10-31T02:38:44.401Z,8.40
2022-10-31T02:41:32.783Z,8.50
2022-10-31T02:44:16.813Z,8.50
2022-10-31T02:47:04.877Z,8.60
2022-10-31T02:49:35.936Z,8.60
2022-10-31T02:52:03.048Z,8.70
2022-10-31T02:54:32.676Z,8.70
2022-10-31T02:57:05.505Z,8.80
2022-10-31T02:59:35.933Z,8.80
2022-10-31T03:02:18.255Z,8.90
2022-10-31T03:04:45.568Z,9.00
2022-10-31T03:07:32.534Z,9.00
2022-10-31T03:10:25.482Z,9.00
2022-10-31T03:13:12.786Z,9.10
2022-10-31T03:15:50.925Z,9.10
2022-10-31T03:18:21.939Z,9.20
2022-10-31T03:20:53.206Z,9.20
2022-10-31T03:23:22.818Z,9.10
2022-10-31T03:25:54.841Z,9.20
2022-10-31T03:28:32.738Z,9.20
2022-10-31T03:31:03.433Z,9.20
2022-10-31T03:33:36.971Z,9.30
2022-10-31T03:36:06.896Z,9.30
2022-10-31T03:38:36.607Z,9.30
2022-10-31T03:41:08.177Z,9.40
2022-10-31T03:43:47.264Z,9.50
2022-10-31T03:46:14.929Z,9.50
2022-10-31T03:48:42.004Z,9.60
2022-10-31T03:51:20.360Z,9.60
2022-10-31T03:53:57.768Z,9.60
2022-10-31T03:56:53.028Z,9.60
2022-10-31T03:59:43.916Z,9.70
2022-10-31T04:02:18.028Z,9.70
2022-10-31T04:04:47.360Z,9.70
2022-10-31T04:07:15.941Z,9.70
2022-10-31T04:09:46.387Z,9.70
2022-10-31T04:12:16.758Z,9.70
2022-10-31T04:15:05.066Z,9.70
2022-10-31T04:17:39.593Z,9.70
2022-10-31T04:20:07.461Z,9.70
2022-10-31T04:22:34.995Z,9.70
2022-10-31T04:25:02.124Z,9.70
2022-10-31T04:27:29.329Z,9.70
2022-10-31T04:29:56.501Z,9.80
2022-10-31T04:32:23.710Z,9.80
2022-10-31T04:34:53.129Z,9.80
2022-10-31T04:37:20.365Z,9.90
2022-10-31T04:39:48.697Z,9.80
2022-10-31T04:42:34.700Z,9.90
2022-10-31T04:45:04.851Z,10.00
2022-10-31T04:47:34.465Z,10.00
2022-10-31T04:50:03.015Z,10.00
2022-10-31T04:52:30.391Z,10.00
2022-10-31T04:54:58.306Z,10.00
2022-10-31T04:57:54.774Z,10.10
2022-10-31T05:00:24.247Z,10.10
2022-10-31T05:02:56.975Z,10.20
2022-10-31T05:05:30.768Z,10.20
2022-10-31T05:07:59.796Z,10.20
2022-10-31T05:10:29.511Z,10.30
2022-10-31T05:13:02.084Z,10.30
2022-10-31T05:15:55.048Z,10.30
2022-10-31T05:18:40.189Z,10.30
2022-10-31T05:21:13.111Z,10.40
2022-10-31T05:23:48.498Z,10.30
2022-10-31T05:26:16.273Z,10.40
2022-10-31T05:28:43.810Z,10.40
2022-10-31T05:31:11.907Z,10.40
2022-10-31T05:33:39.083Z,10.40
2022-10-31T05:36:12.150Z,10.40
2022-10-31T05:38:43.803Z,10.40
2022-10-31T05:41:22.379Z,10.40
2022-10-31T05:43:49.708Z,10.50
2022-10-31T05:46:20.575Z,10.50
2022-10-31T05:49:03.165Z,10.50
2022-10-31T05:51:48.538Z,10.50
2022-10-31T05:54:16.273Z,10.50
2022-10-31T05:56:45.864Z,10.50
2022-10-31T05:59:13.195Z,10.50
2022-10-31T06:01:41.061Z,10.40
2022-10-31T06:04:22.333Z,10.30
2022-10-31T06:06:49.425Z,10.40
2022-10-31T06:09:17.081Z,10.30
2022-10-31T06:11:45.204Z,10.40
2022-10-31T06:14:27.424Z,10.40
2022-10-31T06:16:57.063Z,10.50
2022-10-31T06:19:42.781Z,10.50
2022-10-31T06:22:12.515Z,10.50
2022-10-31T06:24:40.191Z,10.50
2022-10-31T06:27:26.266Z,10.50
2022-10-31T06:29:54.302Z,10.60
2022-10-31T06:32:35.851Z,10.60
2022-10-31T06:35:03.133Z,10.70
2022-10-31T06:37:30.161Z,10.70
2022-10-31T06:40:04.503Z,10.70
2022-10-31T06:42:40.212Z,10.70
2022-10-31T06:45:10.246Z,10.80
2022-10-31T06:48:17.179Z,10.80
2022-10-31T06:51:04.031Z,11.00
2022-10-31T06:53:32.688Z,11.10
2022-10-31T06:56:00.138Z,11.10
2022-10-31T06:58:27.330Z,11.20
2022-10-31T07:01:01.488Z,11.30
2022-10-31T07:03:30.625Z,11.40
2022-10-31T07:05:58.603Z,11.40
2022-10-31T07:08:26.449Z,11.50
2022-10-31T07:10:55.623Z,11.50
2022-10-31T07:13:28.130Z,11.50
2022-10-31T07:16:05.928Z,11.60
2022-10-31T07:18:35.849Z,11.80
2022-10-31T07:21:03.676Z,11.90
2022-10-31T07:23:33.096Z,11.90
2022-10-31T07:26:29.967Z,11.90
2022-10-31T07:28:57.988Z,12.00
2022-10-31T07:31:26.754Z,12.10
2022-10-31T07:33:57.958Z,12.10
2022-10-31T07:36:28.188Z,12.20
2022-10-31T07:38:59.987Z,12.20
2022-10-31T07:41:27.724Z,12.30
2022-10-31T07:43:55.568Z,12.30
2022-10-31T07:46:48.968Z,12.30
2022-10-31T07:49:36.306Z,12.30
2022-10-31T07:52:22.139Z,12.30
2022-10-31T07:55:12.414Z,12.40
2022-10-31T07:57:39.785Z,12.40
2022-10-31T08:00:10.087Z,12.30
2022-10-31T08:02:42.199Z,12.30
2022-10-31T08:05:36.432Z,12.30
2022-10-31T08:08:30.306Z,12.30
2022-10-31T08:10:59.308Z,12.40
2022-10-31T08:13:26.953Z,12.50
2022-10-31T08:15:55.347Z,12.60
2022-10-31T08:18:25.986Z,12.60
2022-10-31T08:20:54.995Z,12.70
2022-10-31T08:23:22.700Z,12.80
2022-10-31T08:25:50.127Z,12.80
2022-10-31T08:28:18.028Z,12.90
2022-10-31T08:30:48.354Z,13.00
2022-10-31T08:33:34.717Z,13.10
2022-10-31T08:36:20.318Z,13.20
2022-10-31T08:38:56.510Z,13.20
2022-10-31T08:41:28.400Z,13.30
2022-10-31T08:43:55.645Z,13.30
2022-10-31T08:46:22.688Z,13.40
2022-10-31T08:48:50.252Z,13.50
2022-10-31T08:51:19.459Z,13.40
2022-10-31T08:53:49.857Z,13.80
2022-10-31T08:56:45.838Z,13.50
2022-10-31T08:59:33.296Z,13.60
2022-10-31T09:02:35.857Z,13.70
2022-10-31T09:05:03.138Z,13.80
2022-10-31T09:07:30.269Z,13.80
2022-10-31T09:09:59.758Z,13.90
2022-10-31T09:12:31.143Z,14.00
2022-10-31T09:15:16.836Z,14.00
2022-10-31T09:18:15.487Z,14.10
2022-10-31T09:20:51.505Z,14.20
2022-10-31T09:23:25.566Z,14.30
2022-10-31T09:25:57.071Z,14.30
2022-10-31T09:28:43.112Z,14.40
2022-10-31T09:31:13.546Z,14.40
2022-10-31T09:34:02.831Z,14.50
2022-10-31T09:36:39.808Z,14.50
2022-10-31T09:39:27.098Z,14.60
2022-10-31T09:42:21.470Z,14.60
2022-10-31T09:45:01.815Z,14.60
2022-10-31T09:47:59.988Z,14.60
2022-10-31T09:50:54.116Z,14.60
2022-10-31T09:53:52.461Z,14.60
2022-10-31T09:56:24.273Z,14.60
2022-10-31T09:58:59.093Z,14.70
2022-10-31T10:01:43.922Z,14.70
2022-10-31T10:04:20.748Z,14.70
2022-10-31T10:07:08.926Z,14.80
2022-10-31T10:10:03.410Z,14.90
2022-10-31T10:13:30.224Z,14.90
2022-10-31T10:16:16.081Z,14.90
2022-10-31T10:19:03.882Z,15.00
2022-10-31T10:21:45.620Z,15.00
2022-10-31T10:24:25.440Z,15.10
2022-10-31T10:27:22.194Z,15.10
2022-10-31T10:30:15.652Z,15.20
2022-10-31T10:32:52.736Z,15.20
2022-10-31T10:35:24.658Z,15.20
2022-10-31T10:37:59.244Z,15.30
2022-10-31T10:40:28.749Z,15.30
2022-10-31T10:43:20.364Z,15.30
2022-10-31T10:46:38.875Z,15.40
2022-10-31T10:49:15.447Z,15.40
2022-10-31T10:52:19.392Z,15.40
2022-10-31T10:54:55.585Z,15.50
2022-10-31T10:57:47.901Z,15.50
2022-10-31T11:00:47.448Z,15.50
2022-10-31T11:03:15.567Z,15.50
2022-10-31T11:06:01.584Z,15.50
2022-10-31T11:08:35.829Z,15.50
2022-10-31T11:11:26.347Z,15.50
2022-10-31T11:14:13.409Z,15.50
2022-10-31T11:16:55.546Z,15.50
2022-10-31T11:19:27.997Z,15.50
2022-10-31T11:22:06.329Z,15.50
2022-10-31T11:24:39.702Z,15.50
2022-10-31T11:27:21.290Z,15.50
2022-10-31T11:29:48.497Z,15.50
2022-10-31T11:32:24.977Z,15.50
2022-10-31T11:35:04.654Z,15.40
2022-10-31T11:37:36.387Z,15.40
2022-10-31T11:40:07.130Z,15.40
2022-10-31T11:42:41.218Z,15.40
2022-10-31T11:45:35.126Z,15.30
2022-10-31T11:48:15.016Z,15.30
2022-10-31T11:50:43.829Z,15.30
2022-10-31T11:53:21.374Z,15.30
2022-10-31T11:55:59.854Z,15.20
2022-10-31T11:58:27.727Z,15.20
2022-10-31T12:00:57.221Z,15.20
2022-10-31T12:03:24.970Z,15.20
2022-10-31T12:06:06.071Z,15.10
2022-10-31T12:08:35.924Z,15.10
2022-10-31T12:11:41.098Z,15.10
2022-10-31T12:14:23.928Z,15.10
2022-10-31T12:17:16.905Z,15.10
2022-10-31T12:20:00.559Z,15.10
2022-10-31T12:22:46.250Z,15.00
2022-10-31T12:25:41.435Z,15.00
2022-10-31T12:28:46.362Z,15.00
2022-10-31T12:31:40.002Z,15.00
2022-10-31T12:34:38.055Z,14.90
2022-10-31T12:37:16.584Z,14.90
2022-10-31T12:40:05.065Z,14.90
2022-10-31T12:43:06.764Z,14.90
2022-10-31T12:45:45.841Z,14.80
2022-10-31T12:48:16.040Z,14.80
2022-10-31T12:50:59.464Z,14.70
2022-10-31T12:53:45.823Z,14.70
2022-10-31T12:56:43.788Z,14.70
2022-10-31T12:59:40.064Z,14.60
2022-10-31T13:02:28.383Z,14.60
2022-10-31T13:05:18.633Z,14.50
2022-10-31T13:08:11.178Z,14.50
2022-10-31T13:13:42.661Z,14.40
2022-10-31T13:16:20.620Z,14.50
2022-10-31T13:19:04.789Z,14.50
2022-10-31T13:21:40.306Z,14.50
2022-10-31T13:24:17.619Z,14.50
2022-10-31T13:26:55.233Z,14.50
2022-10-31T13:29:34.509Z,14.50
2022-10-31T13:32:06.167Z,14.40
2022-10-31T13:34:47.070Z,14.50
2022-10-31T13:37:17.094Z,14.40
2022-10-31T13:39:52.566Z,14.40
2022-10-31T13:42:26.864Z,14.40
2022-10-31T13:44:53.860Z,14.30
2022-10-31T13:47:27.310Z,14.30
2022-10-31T13:50:25.687Z,14.30
2022-10-31T13:52:55.596Z,14.30
2022-10-31T13:55:46.541Z,14.20
2022-10-31T13:58:26.247Z,14.20
2022-10-31T14:01:23.215Z,14.30
2022-10-31T14:04:20.694Z,14.20
2022-10-31T14:07:13.292Z,14.20
2022-10-31T14:10:03.573Z,14.10
2022-10-31T14:12:32.602Z,14.10
2022-10-31T14:15:05.176Z,14.10
2022-10-31T14:17:47.605Z,14.00
2022-10-31T14:20:15.114Z,14.00
2022-10-31T14:22:43.157Z,13.90
2022-10-31T14:25:34.880Z,13.80
2022-10-31T14:28:18.681Z,13.80
2022-10-31T14:30:57.052Z,13.80
2022-10-31T14:33:27.732Z,13.70
2022-10-31T14:36:05.165Z,13.70
2022-10-31T14:38:53.780Z,13.70
2022-10-31T14:41:34.183Z,13.70
2022-10-31T14:44:42.542Z,13.70
2022-10-31T14:47:20.289Z,13.70
2022-10-31T14:50:13.971Z,13.60
2022-10-31T14:52:43.753Z,13.60
2022-10-31T14:55:14.174Z,13.60
2022-10-31T14:58:05.658Z,13.60
2022-10-31T15:00:33.958Z,13.50
2022-10-31T15:03:21.728Z,13.50
2022-10-31T15:05:54.389Z,13.50
2022-10-31T15:08:41.384Z,13.50
2022-10-31T15:11:18.509Z,13.50
2022-10-31T15:13:51.190Z,13.50
2022-10-31T15:16:40.811Z,13.50
2022-10-31T15:19:12.963Z,13.50
2022-10-31T15:21:48.538Z,13.50
2022-10-31T15:24:16.976Z,13.40
2022-10-31T15:26:47.955Z,13.40
2022-10-31T15:29:26.802Z,13.40
2022-10-31T15:32:16.495Z,13.40
2022-10-31T15:34:47.773Z,13.30
2022-10-31T15:37:19.945Z,13.30
2022-10-31T15:39:50.075Z,13.30
2022-10-31T15:42:35.173Z,13.30
2022-10-31T15:45:17.727Z,13.20
2022-10-31T15:47:55.925Z,13.20
2022-10-31T15:50:41.220Z,13.20
2022-10-31T15:53:20.553Z,13.20
2022-10-31T15:55:52.751Z,13.10
2022-10-31T15:58:20.393Z,13.10
2022-10-31T16:01:05.066Z,13.10
2022-10-31T16:03:33.896Z,13.20
2022-10-31T16:06:04.776Z,13.10
2022-10-31T16:08:31.874Z,13.00
2022-10-31T16:11:17.556Z,13.00
2022-10-31T16:14:18.439Z,13.00
2022-10-31T16:16:53.426Z,13.00
2022-10-31T16:19:36.587Z,12.90
2022-10-31T16:22:13.183Z,13.00
2022-10-31T16:25:07.219Z,13.00
2022-10-31T16:27:37.678Z,13.00
2022-10-31T16:30:44.001Z,13.00
2022-10-31T16:33:41.552Z,12.90
2022-10-31T16:36:36.561Z,13.00
2022-10-31T16:39:04.449Z,13.00
2022-10-31T16:41:32.680Z,13.00
2022-10-31T16:44:05.277Z,13.00
2022-10-31T16:46:32.262Z,13.00
2022-10-31T16:48:59.474Z,13.00
2022-10-31T16:51:26.460Z,13.00
2022-10-31T16:53:54.397Z,13.00
2022-10-31T16:56:39.752Z,13.00
2022-10-31T16:59:16.082Z,13.00
2022-10-31T17:01:47.247Z,12.90
2022-10-31T17:04:15.488Z,12.90
2022-10-31T17:06:43.222Z,12.90
2022-10-31T17:09:10.830Z,12.90
2022-10-31T17:11:49.353Z,12.90
2022-10-31T17:14:18.780Z,12.90
2022-10-31T17:16:45.779Z,12.90
2022-10-31T17:19:13.555Z,12.90
2022-10-31T17:21:41.135Z,12.80
2022-10-31T17:24:14.650Z,12.80
2022-10-31T17:26:42.456Z,12.80
2022-10-31T17:29:09.787Z,12.80
2022-10-31T17:31:39.155Z,12.80
2022-10-31T17:34:07.210Z,12.80
2022-10-31T17:36:36.309Z,12.80
2022-10-31T17:39:05.855Z,12.80
2022-10-31T17:41:32.918Z,12.70
2022-10-31T17:44:00.119Z,12.60
2022-10-31T17:46:28.585Z,12.70
2022-10-31T17:48:55.922Z,12.70
2022-10-31T17:51:23.120Z,12.60
2022-10-31T17:53:50.365Z,12.60
2022-10-31T17:56:18.505Z,12.60
2022-10-31T17:58:46.387Z,12.60
2022-10-31T18:01:15.577Z,12.50
2022-10-31T18:03:43.432Z,12.50
2022-10-31T18:06:11.617Z,12.60
2022-10-31T18:08:40.597Z,12.60
2022-10-31T18:11:14.677Z,12.50
2022-10-31T18:13:42.197Z,12.50
2022-10-31T18:16:15.298Z,12.60
2022-10-31T18:18:43.217Z,12.60
2022-10-31T18:21:10.589Z,12.50
2022-10-31T18:23:38.155Z,12.60
2022-10-31T18:26:05.419Z,12.60
2022-10-31T18:28:33.484Z,12.60
2022-10-31T18:31:03.475Z,12.60
2022-10-31T18:33:30.983Z,12.60
2022-10-31T18:36:05.871Z,12.70
2022-10-31T18:38:34.285Z,12.60
2022-10-31T18:41:01.299Z,12.60
2022-10-31T18:43:28.508Z,12.70
2022-10-31T18:45:58.179Z,12.60
2022-10-31T18:48:28.281Z,12.70
2022-10-31T18:50:58.052Z,12.70
2022-10-31T18:53:25.534Z,12.70
2022-10-31T18:55:52.568Z,12.70
2022-10-31T18:58:20.285Z,12.70
2022-10-31T19:00:47.805Z,12.70
2022-10-31T19:03:24.951Z,12.70
2022-10-31T19:05:59.272Z,12.70
2022-10-31T19:11:10.423Z,12.70
2022-10-31T19:13:38.840Z,12.90
2022-10-31T19:16:06.253Z,12.70
2022-10-31T19:18:33.724Z,12.70
2022-10-31T19:21:08.537Z,12.70
2022-10-31T19:23:36.106Z,12.80
2022-10-31T19:26:03.739Z,12.80
2022-10-31T19:28:33.084Z,12.80
2022-10-31T19:31:00.646Z,12.70
2022-10-31T19:33:34.804Z,12.80
2022-10-31T19:36:10.217Z,12.70
2022-10-31T19:38:42.127Z,12.70
2022-10-31T19:41:14.605Z,12.80
2022-10-31T19:43:42.487Z,12.70
2022-10-31T19:46:22.461Z,12.70
2022-10-31T19:48:55.265Z,12.70
2022-10-31T19:51:22.355Z,12.70
2022-10-31T19:53:49.872Z,12.70
2022-10-31T19:56:22.592Z,12.70
2022-10-31T19:58:49.967Z,12.70
2022-10-31T20:01:19.263Z,12.80
2022-10-31T20:03:47.560Z,12.70
2022-10-31T20:06:19.472Z,12.80
2022-10-31T20:08:47.454Z,12.80
2022-10-31T20:11:14.908Z,12.70
2022-10-31T20:13:42.449Z,12.80
2022-10-31T20:16:15.759Z,12.80
2022-10-31T20:18:44.183Z,12.80
2022-10-31T20:21:14.004Z,12.80
2022-10-31T20:23:42.035Z,12.80
2022-10-31T20:26:11.498Z,12.80
2022-10-31T20:28:43.195Z,12.70
2022-10-31T20:31:13.891Z,12.70
2022-10-31T20:33:41.587Z,12.70
2022-10-31T20:36:09.509Z,12.70
2022-10-31T20:38:40.976Z,12.60
2022-10-31T20:41:10.628Z,12.70
2022-10-31T20:43:38.751Z,12.70
2022-10-31T20:46:14.534Z,12.70
2022-10-31T20:48:42.365Z,12.70
2022-10-31T20:51:19.755Z,12.70
2022-10-31T20:53:47.924Z,12.60
2022-10-31T20:56:18.151Z,12.60
2022-10-31T20:58:46.371Z,12.60
2022-10-31T21:01:16.015Z,12.60
2022-10-31T21:03:44.640Z,12.60
2022-10-31T21:06:12.424Z,12.50
2022-10-31T21:08:41.600Z,12.50
2022-10-31T21:11:11.658Z,12.50
2022-10-31T21:13:41.368Z,12.50
2022-10-31T21:16:11.017Z,12.60
2022-10-31T21:18:40.140Z,12.50
2022-10-31T21:21:12.014Z,12.50
2022-10-31T21:23:40.160Z,12.50
2022-10-31T21:26:09.641Z,12.50
2022-10-31T21:28:37.471Z,12.40
2022-10-31T21:31:10.578Z,12.40
2022-10-31T21:33:38.809Z,12.40
2022-10-31T21:36:06.321Z,12.40
2022-10-31T21:38:38.049Z,12.40
2022-10-31T21:41:07.456Z,12.30
2022-10-31T21:43:40.728Z,12.30
2022-10-31T21:46:10.927Z,12.30
2022-10-31T21:48:41.851Z,12.30
2022-10-31T21:51:11.175Z,12.30
2022-10-31T21:53:57.386Z,12.30
2022-10-31T21:56:25.136Z,12.30
2022-10-31T21:58:53.146Z,12.30
2022-10-31T22:01:20.966Z,12.30
2022-10-31T22:03:50.055Z,12.30
2022-10-31T22:06:17.304Z,12.30
2022-10-31T22:08:44.867Z,12.30
2022-10-31T22:11:15.317Z,12.20
2022-10-31T22:13:45.834Z,12.20
2022-10-31T22:16:15.449Z,12.20
2022-10-31T22:18:43.299Z,12.20
2022-10-31T22:21:13.761Z,12.20
2022-10-31T22:23:41.751Z,12.20
2022-10-31T22:26:16.136Z,12.20
2022-10-31T22:28:45.649Z,12.20
2022-10-31T22:31:18.021Z,12.20
2022-10-31T22:33:46.387Z,12.20
2022-10-31T22:36:19.717Z,12.20
2022-10-31T22:38:47.436Z,12.20
2022-10-31T22:41:16.913Z,12.20
2022-10-31T22:43:44.701Z,12.20
2022-10-31T22:46:17.367Z,12.10
2022-10-31T22:48:50.341Z,12.10
2022-10-31T22:51:25.713Z,12.10
2022-10-31T22:53:54.330Z,12.10
2022-10-31T22:56:23.084Z,12.10
2022-10-31T22:58:50.373Z,12.10
2022-10-31T23:01:20.529Z,12.10
2022-10-31T23:03:48.364Z,12.10
2022-10-31T23:06:18.420Z,12.10
2022-10-31T23:08:46.149Z,12.10
2022-10-31T23:11:22.010Z,12.10
2022-10-31T23:14:10.240Z,12.00
2022-10-31T23:16:57.049Z,12.10
2022-10-31T23:19:27.696Z,12.00
2022-10-31T23:22:01.859Z,12.00
2022-10-31T23:24:36.730Z,12.00
2022-10-31T23:27:14.766Z,12.00
2022-10-31T23:29:46.517Z,12.00
2022-10-31T23:32:37.709Z,12.00
2022-10-31T23:35:10.117Z,12.00
2022-10-31T23:37:38.560Z,12.00
2022-10-31T23:40:08.601Z,12.00
2022-10-31T23:42:35.913Z,12.00
2022-10-31T23:45:03.281Z,12.00
2022-10-31T23:47:30.565Z,12.00
2022-10-31T23:49:58.255Z,12.00
2022-10-31T23:52:25.447Z,12.00
2022-10-31T23:54:52.699Z,11.90
2022-10-31T23:57:19.930Z,11.90
2022-10-31T23:59:47.949Z,11.90
